Index of /CityGovernment/resolutions/2015

[ICO]NameLast modifiedSizeDescription

[PARENTDIR]Parent Directory  -  
[   ]Res 15-53 Independent Salt Bid 8-10-15.pdf2017-04-21 11:04 87K 
[   ]Res 15-58 Land Pride Flail Mower 9-14-15.pdf2017-04-21 11:04 87K 
[   ]Res 15-28 CO Lan Tel Curb Gutter Sidewalk 5-11-15.pdf2017-04-21 11:04 98K 
[   ]Res 15-37 Joshua Wiener Final Pay Threshold 6-22-15.pdf2017-04-21 11:04 100K 
[   ]Res 15-69 Vance Bros Change Order 2 Village of Oakview 10-12-15.pdf2017-04-21 11:04 101K 
[   ]Res 15-38 Homoly Solar Final Payment Solar Drid Tied WP1588 6-22-15.pdf2017-04-21 11:04 106K 
[   ]Res15-38 Homoly Solar Final Payment Solar Drid Tied WP1588 6-22-15.pdf2017-04-21 11:04 106K 
[   ]Res 15-45 Ratifying and Approving borrow funds First Bank 6-22-15.pdf2017-04-21 11:04 107K 
[   ]Res 15-32 Wiedenmann Final Pay 3200 Block Drainage Improvements 6-8-15.pdf2017-04-21 11:04 110K 
[   ]Res 15-77 Final Pay Fleshman Const Gladstone 18 Phase 2 11-23-15.pdf2017-04-21 11:04 111K 
[   ]Res 15-78 Complete Construction Gladstone 18 Phase 2 Final Payment 11-23-15.pdf2017-04-21 11:04 111K 
[   ]Res 15-17 Senate Bill No. 5 Fines Bond Forfeit Traffic 3-9-15.pdf2017-04-21 11:04 124K 
[   ]Res 15-25 Flexible Benefits Plan 4-27-15.pdf2017-04-21 11:04 131K 
[   ]Res 15-76 Mission Statement Goals 2015-2016 11-23-15.pdf2017-04-21 11:04 134K 
[   ]Res 15-10 HB 714 911 Funding 2-9-15.pdf2017-04-21 11:04 139K 
[   ]Res 15-24 Retirement Health Savings Plan Definition of Spouse 4-27-15.pdf2017-04-21 11:04 147K 
[   ]Res 15-67 Lease Purchase Clayton Holdings 9-28-15.pdf2017-04-21 11:04 155K 
[   ]Res 15-49 Williams Campo Interim Legal Services 7-27-15.pdf2017-04-21 11:04 158K 
[   ]Res 15-44 Comm Center Park Tax Budget Expenditure 6-22-15.pdf2017-04-21 11:04 167K 
[   ]Res 15-54 Surplus Property 8-10-15.pdf2017-04-21 11:04 170K 
[   ]Res 15-01 WatchGuard Video Police Body Cameras 1-12-14.pdf2017-04-21 11:04 209K 
[   ]Res 15-82 Littler Mendelson Labor Law Services 12-14-15.pdf2017-04-21 11:04 223K 
[   ]Res 15-33 Blue Nile Sanitary Sewer Cleaning 6-8-15.pdf2017-04-21 11:04 230K 
[   ]Res 15-74 Quit Claim Deed Rock Creek Greenway Trail Project 11-9-15.pdf2017-04-21 11:04 230K 
[   ]Res 15-07 Surplus Property PS 1-26-15.pdf2017-04-21 11:04 234K 
[   ]Res 15-15 Superior Bowen Asphalt Final Pay Mill Overlay 3-9-15.pdf2017-04-21 11:04 242K 
[   ]Res 15-12 Ace Pipe Cleaning Sewer Cleaning 2-23-15.pdf2017-04-21 11:04 242K 
[   ]Res 15-26 Ind Rev Bonds Curry Investment 4-27-15.pdf2017-04-21 11:04 244K 
[   ]Res 15-46 Superior Bowen Asphalt Mill Overlay TP1606 7-27-15.pdf2017-04-21 11:04 246K 
[   ]Res 15-47 Vance Brothers Intermediate Maintenance Program 7-27-15.pdf2017-04-21 11:04 248K 
[   ]Res 15-09 Fleshman Construction 76th N. Oak Final Pay 2-9-15.pdf2017-04-21 11:04 248K 
[   ]Res 15-06 Engineered Systems Final Pay Curb Gutter Sidewalk 1-26-15.pdf2017-04-21 11:04 248K 
[   ]Res 15-16 Blue Nile Final Pay NE 58 N HOward Water Sewer 3-9-15.pdf2017-04-21 11:04 252K 
[   ]Res 15-81 Williams Campo Legal Services Agreement 12-14-15.pdf2017-04-21 11:04 259K 
[   ]Res 15-23 Access Agreement Gladstone Cap LLC 4-21-15.pdf2017-04-21 11:04 259K 
[   ]Res 15-11 LanTel NE Englewood N Oak Curb Gutter Sidewalk 2-23-15.pdf2017-04-21 11:04 261K 
[   ]Res 15-48 Complete Construction Service Gladstone 18 7-27-15.pdf2017-04-21 11:04 264K 
[   ]Res 15-18 Mill Overlay Superior Bowen 3-23-15.pdf2017-04-21 11:04 266K 
[   ]Res 15-27 Shedigs It Mill Creek Bank STabilization CO 1251 5-11-15.pdf2017-04-21 11:04 283K 
[   ]Res 15-79 Surplus Property IT Surplus Exchange 11-23-15.pdf2017-04-21 11:04 320K 
[   ]Res 15-05 Agreement HHW MARC 1-26-15.pdf2017-04-21 11:04 359K 
[   ]Res 15-52 Easements Pleasant Valley Road Improve 8-10-15.pdf2017-04-21 11:04 360K 
[   ]Res 15-41 Waldinger Corp Comm Center HVAC Agreement 6-22-15.pdf2017-04-21 11:04 383K 
[   ]Res 15-22 First Amendment to Development Agreemetn Gladstone Cap LLC 4-21-15.pdf2017-04-21 11:04 392K 
[   ]Res 15-39 Temporary Construction Easements NE69th 6-22-15.pdf2017-04-21 11:04 393K 
[   ]Res 15-62 Dick Smith Police Interceptor Vehicles 9-14-15.pdf2017-04-21 11:04 397K 
[   ]Res 15-51 Easement N. Oak Street Improve Project 8-10-15.pdf2017-04-21 11:04 397K 
[   ]Res 15-68 Re appropriation 2016 10-12-15.pdf2017-04-21 11:04 425K 
[   ]Res 15-02 Carriage Hill 7-9 Sign Topper Use Agreement 1-12-15.pdf2017-04-21 11:04 452K 
[   ]Res 15-03 Higbee Compensation Study Position Classification 1-12-15.pdf2017-04-21 11:04 463K 
[   ]Res 15-19 OMNI Entertainment Linden 3-23-15.pdf2017-04-21 11:04 470K 
[   ]Res 15-14 LWCF Grant Parks 3-9-15.pdf2017-04-21 11:04 474K 
[   ]Res 15-71 Easement NE 58th Street North Tracy Ave Stormwater Project 10-26-15.pdf2017-04-21 11:04 518K 
[   ]Res 15-21 Hoefer Wysocki Architecture Facilities Study 4-13-15.pdf2017-04-21 11:04 529K 
[   ]Res 15-63 Landmark Dodge Charger Vehicle 9-14-15.pdf2017-04-21 11:04 563K 
[   ]Res 15-59 Kubota Tractor 9-14-15.pdf2017-04-21 11:04 608K 
[   ]Res 15-30 COPS Series 2015 Lease Purchase Agreement 5-26-15.pdf2017-04-21 11:04 658K 
[   ]Res 15-70 ETC Institute Contract Citizen Satisfaction Survey 10-12-15.pdf2017-04-21 11:04 663K 
[   ]Res 15-20 Water Treatment Plant Solar Grid Homoly Solar 4-13-15.pdf2017-04-21 11:04 672K 
[   ]Res 15-42 Agreement KCATA 6-22-15.pdf2017-04-21 11:04 675K 
[   ]Res 15-55 Easements Pleasant Valley Road N Indiana N Brighton 8-24-15.pdf2017-04-21 11:04 680K 
[   ]Res 15-13 Airgas CO2 Tank Replacement 2-23-15.pdf2017-04-21 11:04 693K 
[   ]Res 15-40 Temporary Construction Easement Drainage Easments NE Pursell Road Mill Creek 6-22-15.pdf2017-04-21 11:04 704K 
[   ]RES 15-66 EverReady Holiday Lighting 9-28-15.pdf2017-04-21 11:04 707K 
[   ]Res 15-36 Amending the Employee Handbook 6-8-15.pdf2017-04-21 11:04 723K 
[   ]Res 15-65 Waters Edge Pool Mechanical Room Reno 9-28-15.pdf2017-04-21 11:04 728K 
[   ]Res 15-57 Easement Right of Way Rock Creek Greenway Trail Padilla Heritage 9-14-15.pdf2017-04-21 11:04 813K 
[   ]Res 15-08 2015 Budget Reappropriations 2-9-15.pdf2017-04-21 11:04 856K 
[   ]Res 15-04 Professional Service Contract National Civic League Citizen Based Strategic Plan 1-26-15.pdf2017-04-21 11:04 878K 
[   ]Res 15-29 COPS 2006 Refunding Hobby Hill Springsted Inc. 5-26-15.pdf2017-04-21 11:04 892K 
[   ]Res 15-60 Zoll Medical Corp Monitor Defibrillator 9-14-15.pdf2017-04-21 11:04 928K 
[   ]Res 15-64 Watchguard Video Body Cameras Video Systems 9-14-15.pdf2017-04-21 11:04 1.0M 
[   ]Res 15-72 Contract with Land3 Studio LLC Hobby Hill Park Renovation 10-26-15.pdf2017-04-21 11:04 1.0M 
[   ]Res 15-80 Contract Confluence Housing Policy Strategic Framework Plan 12-14-15.pdf2017-04-21 11:04 1.0M 
[   ]Res 15-43 Purchase Agreement Traumahawk Ambulance 6-22-15.pdf2017-04-21 11:04 1.2M 
[   ]Res 15-75 Municipal Advisor Agreement 11-9-15.pdf2017-04-21 11:04 1.3M 
[   ]Res 15-61 Transit Van Equipment 9-14-15.pdf2017-04-21 11:04 1.4M 
[   ]Res 15-34 Quit Claim Deeds Rock Creek Greenway Trail 6-8-15.pdf2017-04-21 11:04 1.5M 
[   ]Res 15-50 Revised Purchasing Policy 8-10-15.pdf2017-04-21 11:04 2.0M 
[   ]Res 15-73 Destruction of Records Shredding 11-9-15.pdf2017-04-21 11:04 2.5M 
[   ]Res 15-31 Lease Agreement Cake Whimzy Bakery 504 NE 70 5-26-15.pdf2017-04-21 11:04 2.8M 
[   ]Res 15-56 Tow Wrecker Service Agreement Glad Rents 8-24-15.pdf2017-04-21 11:04 2.9M 
[   ]Res 15-35 Budget Adoption 2016 6-8-15.pdf2017-04-21 11:04 4.6M